Terminal Aerodrome Forecast
Issued by NWS

Current Version | Previous Version | Text Only | Print | Product List | Glossary Off
Versions: 1 2 3 4 5 6 7 8 9 10 11 12 13 14 15 16 17 18 19 20 21 22 23 24 25 26 27

000
FTUS41 KRNK 172320
TAFLWB
TAF
KLWB 172320Z 1800/1824 VRB03KT P6SM BKN070
     FM180200 VRB03KT P6SM VCSH BKN070
     FM180600 00000KT P6SM SCT045
     FM180900 00000KT 3SM BR BKN003
      TEMPO 1809/1813 1/2SM FG OVC005
     FM181300 00000KT P6SM SCT050=

USA.gov is the U.S. government's official web portal to all federal, state and local government web resources and services.